This is the latest recevied weather packets stored in our database for station/object K6FW. If no packets are shown the sender has not sent any weather packets the latest 10 day(s).
| Time | Temp. | Humidity | Pressure | Rain* | Wind** | Luminosity | Snow |
|---|---|---|---|---|---|---|---|
| 1777849270 | 20.56° C | 58% | 1012.8 hPa | 0 mm | - | 431 W/m² | - |
| 1777846559 | 19.44° C | 65% | 1013.1 hPa | 0 mm | - | 529 W/m² | - |
| 1777843859 | 19.44° C | 65% | 1013.4 hPa | 0 mm | - | 473 W/m² | - |
| 1777842956 | 20° C | 64% | 1013.5 hPa | 0 mm | - | 489 W/m² | - |
| 1777842056 | 20° C | 67% | 1013.5 hPa | 0 mm | - | 925 W/m² | - |
| 1777838457 | 18.33° C | 73% | 1013.9 hPa | 0 mm | - | 726 W/m² | - |
| 1777833069 | 15.56° C | 85% | 1015 hPa | 0 mm | - | 232 W/m² | - |
| 1777831259 | 15° C | 90% | 1015.1 hPa | 0 mm | - | 255 W/m² | - |
| 1777828555 | 14.44° C | 92% | 1014.8 hPa | 0 mm | - | 181 W/m² | - |
| 1777827673 | 14.44° C | 92% | 1014.6 hPa | 0 mm | - | 204 W/m² | - |
| 1777824958 | 14.44° C | 93% | 1014.5 hPa | 0.25 mm | - | 93 W/m² | - |
| 1777823161 | 13.89° C | 93% | 1014.3 hPa | 0.25 mm | - | 56 W/m² | - |
| 1777822259 | 13.89° C | 93% | 1014.2 hPa | 0.25 mm | - | 88 W/m² | - |
| 1777820460 | 13.33° C | 93% | 1014.1 hPa | 0 mm | - | 81 W/m² | - |
| 1777818658 | 13.33° C | 93% | 1014 hPa | 0 mm | - | 32 W/m² | - |
| 1777816859 | 13.33° C | 92% | 1013.6 hPa | 0 mm | - | 23 W/m² | - |
| 1777813263 | 14.44° C | 91% | 1013.1 hPa | 0 mm | - | 0 W/m² | - |
| 1777809686 | 13.89° C | 90% | 1012.5 hPa | 0 mm | - | 0 W/m² | - |
| 1777806958 | 13.89° C | 90% | 1012.6 hPa | 0 mm | - | 0 W/m² | - |
| 1777806057 | 13.89° C | 90% | 1012.8 hPa | 0 mm | - | 0 W/m² | - |
| 1777804259 | 13.89° C | 90% | 1013 hPa | 0 mm | - | 0 W/m² | - |
| 1777797062 | 13.89° C | 88% | 1013.5 hPa | 0 mm | - | 0 W/m² | - |
| 1777795259 | 13.89° C | 87% | 1013.4 hPa | 0 mm | - | 0 W/m² | - |
| 1777779955 | 17.22° C | 75% | 1011.7 hPa | 0 mm | - | 0 W/m² | - |
| 1777777265 | 18.89° C | 70% | 1011.1 hPa | 0 mm | - | 0 W/m² | - |
* Rain latest hour (hover to see other rain measurements)
** Current wind speed in m/s (hover to see current wind gust speed)